Pindi Bhattian Weather



Pindi Bhattian's Current Weather

Temprature 21.42o clear sky

clear sky

Rain: 0 %

Min Temprature21.42o
Max Temprature21.42o
Humidity22
Wind Speed1.19 m/h
Sun Rise06:20:07
Sun Set17:21:04
Current Time: 28-Oct-2020 08:14:11
Lat/Lon: 31.9, 73.27




Pindi Bhattian's Geo Location



Pindi Bhattian's Weather Forecast

Time Overall Temp Min Temp Max Temp Humidity Wind Speed Rain
28-Oct-2020 (Wed)
11:00:00 clear sky 25.880 25.880 30.550 17 1.61 m/h 0 %
14:00:00 clear sky 30.690 30.690 33.240 13 1.46 m/h 0 %
17:00:00 clear sky 27.200 27.200 27.600 15 0.79 m/h 0 %
20:00:00 clear sky 22.810 22.810 22.820 20 2.57 m/h 0 %
23:00:00 clear sky 19.950 19.950 19.950 23 2.53 m/h 0 %
29-Oct-2020 (Thu)
02:00:00 clear sky 18.160 18.160 18.160 26 2.39 m/h 0 %
05:00:00 clear sky 16.590 16.590 16.590 28 2.47 m/h 0 %
08:00:00 clear sky 20.200 20.200 20.200 23 2.43 m/h 0 %
11:00:00 clear sky 29.580 29.580 29.580 13 1.89 m/h 0 %
14:00:00 clear sky 33.180 33.180 33.180 11 0.99 m/h 0 %
17:00:00 clear sky 27.730 27.730 27.730 15 1.44 m/h 0 %
20:00:00 clear sky 22.450 22.450 22.450 21 2.7 m/h 0 %
23:00:00 clear sky 20.240 20.240 20.240 24 2.22 m/h 0 %
30-Oct-2020 (Fri)
02:00:00 clear sky 18.430 18.430 18.430 27 2.53 m/h 0 %
05:00:00 clear sky 17.150 17.150 17.150 29 2.21 m/h 0 %
08:00:00 clear sky 20.960 20.960 20.960 23 1.73 m/h 0 %
11:00:00 clear sky 29.850 29.850 29.850 13 2.63 m/h 0 %
14:00:00 clear sky 32.730 32.730 32.730 11 2.76 m/h 0 %
17:00:00 clear sky 27.800 27.800 27.800 15 2.44 m/h 0 %
20:00:00 clear sky 21.990 21.990 21.990 20 2.91 m/h 0 %
23:00:00 clear sky 20.300 20.300 20.300 22 2.77 m/h 0 %
31-Oct-2020 (Sat)
02:00:00 clear sky 18.240 18.240 18.240 24 2.3 m/h 0 %
05:00:00 clear sky 16.790 16.790 16.790 26 1.67 m/h 0 %
08:00:00 clear sky 21.590 21.590 21.590 20 1.48 m/h 0 %
11:00:00 clear sky 30.920 30.920 30.920 11 3.59 m/h 0 %
14:00:00 clear sky 33.490 33.490 33.490 9 4.7 m/h 0 %
17:00:00 clear sky 27.330 27.330 27.330 13 3.45 m/h 0 %
20:00:00 clear sky 21.010 21.010 21.010 19 2.32 m/h 0 %
23:00:00 clear sky 18.280 18.280 18.280 22 1.43 m/h 0 %
01-Nov-2020 (Sun)
02:00:00 clear sky 16.890 16.890 16.890 24 1.37 m/h 0 %
05:00:00 clear sky 16.240 16.240 16.240 24 1.49 m/h 0 %
08:00:00 clear sky 20.900 20.900 20.900 18 0.46 m/h 0 %
11:00:00 clear sky 29.690 29.690 29.690 11 2.71 m/h 0 %
14:00:00 clear sky 33.000 33.000 33.000 9 4.01 m/h 0 %
17:00:00 clear sky 26.960 26.960 26.960 13 2.57 m/h 0 %
20:00:00 clear sky 20.920 20.920 20.920 20 1.89 m/h 0 %
23:00:00 clear sky 19.110 19.110 19.110 22 1.5 m/h 0 %
02-Nov-2020 (Mon)
02:00:00 clear sky 17.930 17.930 17.930 25 1.56 m/h 0 %
05:00:00 clear sky 16.200 16.200 16.200 29 1.24 m/h 0 %
08:00:00 clear sky 20.220 20.220 20.220 22 1.37 m/h 0 %

Famous Cities (60)